KLM22C LFML-EHAM
Flight info
| Callsign | KLM22C |
|---|---|
| Flight time | N/A |
| Altitude | 38000 |
| Route | ETREK DCT MADOT DCT MOPEM DCT CACHI DCT AVLON DCT OKRIX DCT BRY DCT CLM DCT NURMO DCT LUMIL DCT BELOB UY873 DENUT |
| Aircraft | B738/M-SDE2E3FGHIRWXY/LB1 |
Departure
| Time | 2026-05-06 17:45 |
|---|---|
| Airport | Marseille Provence Airport (LFML) |
Arrival
| Time | N/A |
|---|---|
| Airport | Amsterdam Airport Schiphol (EHAM) |
| Time | Latitude | Longitude | Altitude | Speed | Heading |
|---|---|---|---|---|---|
| 2026-05-06 17:17 | 43.43862 | 5.22310 | 41 ft | 0 kts | 73° |
| 2026-05-06 17:33 | 43.43862 | 5.22309 | 41 ft | 0 kts | 73° |
| 2026-05-06 17:34 | 43.43859 | 5.22296 | 40 ft | 2 kts | 73° |
| 2026-05-06 17:34 | 43.43855 | 5.22276 | 39 ft | 2 kts | 73° |
| 2026-05-06 17:34 | 43.43851 | 5.22256 | 39 ft | 2 kts | 73° |
| 2026-05-06 17:34 | 43.43847 | 5.22236 | 38 ft | 2 kts | 73° |
| 2026-05-06 17:35 | 43.43842 | 5.22216 | 37 ft | 2 kts | 87° |
| 2026-05-06 17:35 | 43.43845 | 5.22200 | 36 ft | 0 kts | 126° |
| 2026-05-06 17:35 | 43.43850 | 5.22193 | 36 ft | 1 kts | 131° |
| 2026-05-06 17:36 | 43.43851 | 5.22191 | 36 ft | 0 kts | 130° |
| 2026-05-06 17:37 | 43.43851 | 5.22192 | 36 ft | 0 kts | 130° |
| 2026-05-06 17:37 | 43.43814 | 5.22221 | 37 ft | 8 kts | 167° |
| 2026-05-06 17:37 | 43.43766 | 5.22230 | 39 ft | 5 kts | 178° |
| 2026-05-06 17:38 | 43.43752 | 5.22230 | 39 ft | 0 kts | 183° |
| 2026-05-06 17:38 | 43.43720 | 5.22187 | 38 ft | 11 kts | 230° |
| 2026-05-06 17:38 | 43.43659 | 5.22114 | 38 ft | 11 kts | 194° |
| 2026-05-06 17:38 | 43.43571 | 5.22168 | 42 ft | 20 kts | 147° |
| 2026-05-06 17:39 | 43.43441 | 5.22250 | 49 ft | 18 kts | 152° |
| 2026-05-06 17:39 | 43.43336 | 5.22320 | 54 ft | 14 kts | 140° |
| 2026-05-06 17:39 | 43.43270 | 5.22411 | 57 ft | 13 kts | 136° |
| 2026-05-06 17:39 | 43.43178 | 5.22539 | 61 ft | 21 kts | 134° |
| 2026-05-06 17:40 | 43.43077 | 5.22679 | 66 ft | 19 kts | 135° |
| 2026-05-06 17:40 | 43.43000 | 5.22798 | 72 ft | 13 kts | 132° |
| 2026-05-06 17:40 | 43.42937 | 5.22881 | 76 ft | 14 kts | 136° |
| 2026-05-06 17:40 | 43.42853 | 5.22961 | 79 ft | 14 kts | 178° |
| 2026-05-06 17:41 | 43.42806 | 5.22935 | 78 ft | 0 kts | 228° |
| 2026-05-06 17:42 | 43.42802 | 5.22930 | 78 ft | 2 kts | 228° |
| 2026-05-06 17:42 | 43.42755 | 5.22854 | 76 ft | 14 kts | 246° |
| 2026-05-06 17:43 | 43.42777 | 5.22774 | 74 ft | 0 kts | 313° |
| 2026-05-06 17:43 | 43.42780 | 5.22771 | 74 ft | 2 kts | 313° |
| 2026-05-06 17:43 | 43.42826 | 5.22704 | 71 ft | 23 kts | 314° |
| 2026-05-06 17:44 | 43.43015 | 5.22416 | 62 ft | 55 kts | 314° |
| 2026-05-06 17:44 | 43.43310 | 5.22015 | 49 ft | 74 kts | 314° |
| 2026-05-06 17:44 | 43.43823 | 5.21284 | 26 ft | 137 kts | 314° |
| 2026-05-06 17:44 | 43.44596 | 5.20238 | 285 ft | 163 kts | 315° |
| 2026-05-06 17:45 | 43.45369 | 5.19238 | 1095 ft | 149 kts | 310° |
| 2026-05-06 17:45 | 43.46056 | 5.18204 | 1702 ft | 150 kts | 309° |
| 2026-05-06 17:45 | 43.46773 | 5.17110 | 2184 ft | 159 kts | 311° |
| 2026-05-06 17:45 | 43.47555 | 5.15971 | 2628 ft | 171 kts | 312° |
| 2026-05-06 17:46 | 43.48409 | 5.14756 | 3069 ft | 185 kts | 312° |
| 2026-05-06 17:46 | 43.49335 | 5.13439 | 3478 ft | 201 kts | 313° |
| 2026-05-06 17:46 | 43.50340 | 5.12007 | 3899 ft | 218 kts | 313° |
| 2026-05-06 17:46 | 43.51443 | 5.10437 | 4364 ft | 235 kts | 313° |
| 2026-05-06 17:47 | 43.52600 | 5.08787 | 4866 ft | 249 kts | 313° |
| 2026-05-06 17:47 | 43.53847 | 5.07004 | 5424 ft | 262 kts | 313° |
| 2026-05-06 17:47 | 43.55095 | 5.05220 | 6170 ft | 265 kts | 313° |
| 2026-05-06 17:47 | 43.56378 | 5.03386 | 6970 ft | 268 kts | 313° |
| 2026-05-06 17:48 | 43.57649 | 5.01570 | 7771 ft | 270 kts | 313° |
| 2026-05-06 17:48 | 43.58940 | 4.99739 | 8591 ft | 273 kts | 313° |
| 2026-05-06 17:48 | 43.60270 | 4.97860 | 9464 ft | 274 kts | 313° |
| 2026-05-06 17:48 | 43.61597 | 4.95983 | 10227 ft | 280 kts | 313° |
| 2026-05-06 17:49 | 43.62988 | 4.94013 | 10771 ft | 294 kts | 313° |
| 2026-05-06 17:49 | 43.64458 | 4.91929 | 11272 ft | 310 kts | 313° |
| 2026-05-06 17:49 | 43.66019 | 4.89716 | 11820 ft | 325 kts | 313° |
| 2026-05-06 17:49 | 43.67730 | 4.87566 | 12293 ft | 342 kts | 321° |
| 2026-05-06 17:50 | 43.69851 | 4.86010 | 12835 ft | 359 kts | 338° |
| 2026-05-06 17:50 | 43.72276 | 4.84988 | 13594 ft | 366 kts | 342° |
| 2026-05-06 17:50 | 43.74734 | 4.84125 | 14427 ft | 370 kts | 343° |
| 2026-05-06 17:50 | 43.77253 | 4.83254 | 15262 ft | 374 kts | 343° |
| 2026-05-06 17:51 | 43.79782 | 4.82350 | 16067 ft | 379 kts | 342° |
| 2026-05-06 17:51 | 43.82359 | 4.81392 | 16861 ft | 383 kts | 341° |
| 2026-05-06 17:51 | 43.84922 | 4.80410 | 17606 ft | 387 kts | 341° |
| 2026-05-06 17:51 | 43.87501 | 4.79404 | 18403 ft | 390 kts | 341° |
| 2026-05-06 17:52 | 43.90133 | 4.78367 | 19120 ft | 396 kts | 340° |
| 2026-05-06 17:52 | 43.92777 | 4.77322 | 19847 ft | 400 kts | 340° |
| 2026-05-06 17:52 | 43.95490 | 4.76248 | 20582 ft | 404 kts | 340° |
| 2026-05-06 17:52 | 43.98214 | 4.75168 | 21279 ft | 409 kts | 341° |
| 2026-05-06 17:53 | 44.00959 | 4.74110 | 21997 ft | 414 kts | 342° |
| 2026-05-06 17:53 | 44.03755 | 4.73165 | 22676 ft | 418 kts | 343° |
| 2026-05-06 17:53 | 44.06629 | 4.72284 | 23341 ft | 423 kts | 345° |
| 2026-05-06 17:53 | 44.09486 | 4.71439 | 23974 ft | 427 kts | 345° |
| 2026-05-06 17:54 | 44.12207 | 4.70640 | 24507 ft | 431 kts | 345° |
| 2026-05-06 17:54 | 44.14896 | 4.69843 | 24941 ft | 436 kts | 345° |
| 2026-05-06 17:54 | 44.17561 | 4.69046 | 25427 ft | 439 kts | 344° |
| 2026-05-06 17:54 | 44.20553 | 4.68142 | 25872 ft | 445 kts | 344° |
| 2026-05-06 17:55 | 44.25565 | 4.66614 | 26676 ft | 451 kts | 343° |
| 2026-05-06 17:55 | 44.28064 | 4.65846 | 27034 ft | 454 kts | 343° |
| 2026-05-06 17:55 | 44.30943 | 4.64959 | 27446 ft | 458 kts | 343° |
| 2026-05-06 17:56 | 44.34690 | 4.63800 | 27922 ft | 464 kts | 343° |
| 2026-05-06 17:56 | 44.38174 | 4.62720 | 28461 ft | 466 kts | 343° |
| 2026-05-06 17:56 | 44.41365 | 4.61729 | 28854 ft | 471 kts | 343° |
| 2026-05-06 17:56 | 44.44587 | 4.60727 | 29290 ft | 474 kts | 343° |
| 2026-05-06 17:57 | 44.47748 | 4.59747 | 29910 ft | 471 kts | 343° |
| 2026-05-06 17:57 | 44.50949 | 4.58753 | 30478 ft | 470 kts | 342° |
| 2026-05-06 17:57 | 44.54118 | 4.57767 | 30960 ft | 470 kts | 342° |
| 2026-05-06 17:57 | 44.57293 | 4.56778 | 31484 ft | 468 kts | 343° |
| 2026-05-06 17:58 | 44.60490 | 4.55816 | 31897 ft | 468 kts | 344° |
| 2026-05-06 17:58 | 44.63658 | 4.55025 | 32281 ft | 470 kts | 347° |
| 2026-05-06 17:58 | 44.66931 | 4.54582 | 32662 ft | 474 kts | 353° |
| 2026-05-06 17:58 | 44.70201 | 4.54588 | 33039 ft | 476 kts | 359° |
| 2026-05-06 17:59 | 44.73514 | 4.54922 | 33443 ft | 477 kts | 2° |
| 2026-05-06 17:59 | 44.76849 | 4.55457 | 33837 ft | 477 kts | 4° |
| 2026-05-06 17:59 | 44.80125 | 4.56084 | 34221 ft | 478 kts | 5° |
| 2026-05-06 17:59 | 44.83388 | 4.56751 | 34587 ft | 478 kts | 5° |
| 2026-05-06 18:00 | 44.86690 | 4.57438 | 34992 ft | 476 kts | 5° |
| 2026-05-06 18:00 | 44.89961 | 4.58117 | 35332 ft | 477 kts | 5° |
| 2026-05-06 18:00 | 44.93211 | 4.58784 | 35687 ft | 476 kts | 5° |
| 2026-05-06 18:00 | 44.96453 | 4.59443 | 36051 ft | 475 kts | 5° |
| 2026-05-06 18:01 | 44.99662 | 4.60089 | 36315 ft | 476 kts | 5° |
| 2026-05-06 18:01 | 45.02951 | 4.60745 | 36652 ft | 475 kts | 5° |
| 2026-05-06 18:01 | 45.06159 | 4.61380 | 36948 ft | 475 kts | 5° |
| 2026-05-06 18:01 | 45.09433 | 4.62027 | 37225 ft | 475 kts | 5° |
| 2026-05-06 18:02 | 45.12398 | 4.62611 | 37450 ft | 476 kts | 5° |
| 2026-05-06 18:02 | 45.17877 | 4.63379 | 37860 ft | 474 kts | 360° |
| 2026-05-06 18:02 | 45.20678 | 4.63370 | 37890 ft | 475 kts | 354° |
| 2026-05-06 18:03 | 45.26875 | 4.62410 | 37903 ft | 468 kts | 348° |
| 2026-05-06 18:03 | 45.32726 | 4.61006 | 37912 ft | 468 kts | 347° |
| 2026-05-06 18:04 | 45.39357 | 4.59329 | 37912 ft | 469 kts | 347° |
| 2026-05-06 18:04 | 45.46277 | 4.57641 | 37912 ft | 467 kts | 347° |
| 2026-05-06 18:05 | 45.58889 | 4.54684 | 37911 ft | 468 kts | 348° |
| 2026-05-06 18:06 | 45.65307 | 4.53196 | 37904 ft | 468 kts | 348° |
| 2026-05-06 18:06 | 45.71590 | 4.51740 | 37908 ft | 466 kts | 348° |
| 2026-05-06 18:07 | 45.77874 | 4.50279 | 37905 ft | 467 kts | 348° |
| 2026-05-06 18:07 | 45.82914 | 4.49105 | 37902 ft | 467 kts | 348° |
| 2026-05-06 18:08 | 45.88820 | 4.47729 | 37901 ft | 467 kts | 348° |
| 2026-05-06 18:08 | 45.95188 | 4.46239 | 37901 ft | 466 kts | 349° |
| 2026-05-06 18:09 | 46.01440 | 4.44775 | 37905 ft | 466 kts | 349° |
| 2026-05-06 18:09 | 46.07664 | 4.43314 | 37910 ft | 464 kts | 349° |
| 2026-05-06 18:10 | 46.13496 | 4.41941 | 37911 ft | 464 kts | 349° |
| 2026-05-06 18:10 | 46.18860 | 4.40675 | 37911 ft | 466 kts | 349° |
| 2026-05-06 18:11 | 46.23696 | 4.39532 | 37911 ft | 465 kts | 349° |
| 2026-05-06 18:11 | 46.29386 | 4.38169 | 37912 ft | 464 kts | 348° |
| 2026-05-06 18:12 | 46.40335 | 4.34468 | 37914 ft | 463 kts | 343° |